createdAt,value
2018-07-05T00:04:43.093Z,99.90
2018-07-05T00:17:40.630Z,99.90
2018-07-05T00:28:04.812Z,99.90
2018-07-05T00:33:18.645Z,99.90
2018-07-05T00:48:53.166Z,99.90
2018-07-05T00:51:33.111Z,99.90
2018-07-05T00:56:47.030Z,99.90
2018-07-05T01:20:00.071Z,99.90
2018-07-05T01:25:14.156Z,99.90
2018-07-05T01:27:55.143Z,99.90
2018-07-05T01:30:36.398Z,99.90
2018-07-05T01:35:51.206Z,99.90
2018-07-05T01:38:31.351Z,99.90
2018-07-05T01:43:45.323Z,99.90
2018-07-05T01:51:34.704Z,99.90
2018-07-05T01:59:27.056Z,99.90
2018-07-05T02:02:08.355Z,99.90
2018-07-05T02:12:32.594Z,99.90
2018-07-05T02:15:17.257Z,99.90
2018-07-05T02:20:31.436Z,99.90
2018-07-05T02:25:45.713Z,99.90
2018-07-05T02:28:26.758Z,99.90
2018-07-05T02:33:40.912Z,99.90
2018-07-05T02:41:35.652Z,99.90
2018-07-05T02:44:15.514Z,99.90
2018-07-05T02:46:55.696Z,99.90
2018-07-05T02:52:11.786Z,99.90
2018-07-05T03:00:03.067Z,99.90
2018-07-05T03:05:19.355Z,99.90
2018-07-05T03:16:00.278Z,99.90
2018-07-05T03:24:49.608Z,99.90
2018-07-05T03:32:43.401Z,99.90
2018-07-05T03:35:16.911Z,99.90
2018-07-05T03:40:24.683Z,99.90
2018-07-05T03:52:51.438Z,99.90
2018-07-05T03:57:54.021Z,99.90
2018-07-05T04:05:23.419Z,99.90
2018-07-05T04:12:52.651Z,99.90
2018-07-05T04:17:54.006Z,99.90
2018-07-05T04:30:19.826Z,99.90
2018-07-05T04:40:16.651Z,99.90
2018-07-05T04:47:45.628Z,99.90
2018-07-05T04:55:15.863Z,99.90
2018-07-05T05:00:19.301Z,99.90
2018-07-05T05:02:53.286Z,99.90
2018-07-05T05:05:27.976Z,99.90
2018-07-05T05:08:02.608Z,99.90
2018-07-05T05:10:37.539Z,99.90
2018-07-05T05:13:11.238Z,99.90
2018-07-05T05:15:44.921Z,99.90
2018-07-05T05:25:42.932Z,99.90
2018-07-05T05:28:16.619Z,99.90
2018-07-05T05:33:24.802Z,99.90
2018-07-05T05:36:06.140Z,99.90
2018-07-05T05:38:39.814Z,99.90
2018-07-05T05:43:48.283Z,99.90
2018-07-05T05:48:49.802Z,99.90
2018-07-05T05:51:23.990Z,99.90
2018-07-05T05:53:57.692Z,99.90
2018-07-05T05:56:32.305Z,99.90
2018-07-05T05:59:06.111Z,99.90
2018-07-05T06:14:20.091Z,99.90
2018-07-05T06:17:02.165Z,99.90
2018-07-05T06:19:36.137Z,99.90
2018-07-05T06:22:09.794Z,99.90
2018-07-05T06:24:43.644Z,99.90
2018-07-05T06:32:27.472Z,99.90
2018-07-05T06:35:01.102Z,99.90
2018-07-05T06:37:34.982Z,99.90
2018-07-05T06:42:36.564Z,99.90
2018-07-05T06:47:37.861Z,99.90
2018-07-05T06:50:11.827Z,99.90
2018-07-05T06:55:14.277Z,99.90
2018-07-05T07:00:15.558Z,99.90
2018-07-05T07:02:49.145Z,99.90
2018-07-05T07:05:23.940Z,99.90
2018-07-05T07:10:25.180Z,99.90
2018-07-05T07:13:05.449Z,99.90
2018-07-05T07:15:45.440Z,99.90
2018-07-05T07:18:26.694Z,99.90
2018-07-05T07:28:49.508Z,99.90
2018-07-05T07:36:38.054Z,99.90
2018-07-05T07:39:18.242Z,99.90
2018-07-05T07:49:12.130Z,99.90
2018-07-05T07:56:35.428Z,99.90
2018-07-05T07:59:03.062Z,99.90
2018-07-05T08:01:30.694Z,99.90
2018-07-05T08:03:58.332Z,99.90
2018-07-05T08:16:18.700Z,99.90
2018-07-05T08:23:43.167Z,99.90
2018-07-05T08:26:10.808Z,99.90
2018-07-05T08:36:02.934Z,99.90
2018-07-05T08:45:54.099Z,99.90
2018-07-05T08:50:49.618Z,99.90
2018-07-05T08:53:17.240Z,99.90
2018-07-05T09:03:08.851Z,99.90
2018-07-05T09:08:04.370Z,99.90
2018-07-05T09:15:27.633Z,99.90
2018-07-05T09:17:57.423Z,99.90
2018-07-05T09:22:53.038Z,99.90
2018-07-05T09:27:49.830Z,99.90
2018-07-05T09:30:17.366Z,99.90
2018-07-05T09:32:45.106Z,99.90
2018-07-05T09:40:08.742Z,99.90
2018-07-05T09:42:37.340Z,99.90
2018-07-05T09:47:32.699Z,99.90
2018-07-05T09:50:00.251Z,99.90
2018-07-05T09:57:23.630Z,99.90
2018-07-05T10:02:19.035Z,99.90
2018-07-05T10:17:06.033Z,99.90
2018-07-05T10:19:33.618Z,99.90
2018-07-05T10:26:58.164Z,99.90
2018-07-05T10:29:39.307Z,99.90
2018-07-05T10:34:41.962Z,98.90
2018-07-05T10:39:37.541Z,99.90
2018-07-05T10:44:51.708Z,97.20
2018-07-05T10:47:31.799Z,99.90
2018-07-05T10:55:22.181Z,99.90
2018-07-05T10:58:03.357Z,99.90
2018-07-05T11:05:52.614Z,99.80
2018-07-05T11:16:15.029Z,99.30
2018-07-05T11:18:59.231Z,99.90
2018-07-05T11:24:13.357Z,99.50
2018-07-05T11:32:03.459Z,99.10
2018-07-05T11:34:43.655Z,97.80
2018-07-05T11:37:24.885Z,98.00
2018-07-05T11:42:38.947Z,98.20
2018-07-05T11:50:27.889Z,97.20
2018-07-05T11:53:08.081Z,93.00
2018-07-05T11:58:21.892Z,97.00
2018-07-05T12:03:35.813Z,95.10
2018-07-05T12:11:24.860Z,96.00
2018-07-05T12:14:05.866Z,95.00
2018-07-05T12:16:46.980Z,91.50
2018-07-05T12:19:27.117Z,95.10
2018-07-05T12:27:16.071Z,94.60
2018-07-05T12:29:56.286Z,91.20
2018-07-05T12:32:38.303Z,95.00
2018-07-05T12:35:18.439Z,93.30
2018-07-05T12:40:34.436Z,93.60
2018-07-05T12:45:49.506Z,90.70
2018-07-05T12:51:04.187Z,90.70
2018-07-05T12:53:44.382Z,92.00
2018-07-05T12:56:24.713Z,91.80
2018-07-05T13:01:38.999Z,92.10
2018-07-05T13:04:19.639Z,85.00
2018-07-05T13:12:09.042Z,87.00
2018-07-05T13:25:05.769Z,90.10
2018-07-05T13:27:46.003Z,90.50
2018-07-05T13:30:27.221Z,89.20
2018-07-05T13:33:07.412Z,88.80
2018-07-05T13:35:47.972Z,80.50
2018-07-05T13:38:28.266Z,88.60
2018-07-05T13:41:09.372Z,89.50
2018-07-05T13:51:35.633Z,90.80
2018-07-05T13:54:20.807Z,82.60
2018-07-05T13:57:01.861Z,91.00
2018-07-05T13:59:44.375Z,90.90
2018-07-05T14:02:24.644Z,91.30
2018-07-05T14:05:04.722Z,88.60
2018-07-05T14:23:11.172Z,86.10
2018-07-05T14:25:51.386Z,86.50
2018-07-05T14:28:31.933Z,76.40
2018-07-05T14:38:57.568Z,80.90
2018-07-05T14:44:11.970Z,81.00
2018-07-05T14:46:52.842Z,72.90
2018-07-05T15:04:59.558Z,74.40
2018-07-05T15:07:39.756Z,72.30
2018-07-05T15:10:20.720Z,72.80
2018-07-05T15:15:36.555Z,71.00
2018-07-05T15:38:51.564Z,61.90
2018-07-05T15:44:05.445Z,73.50
2018-07-05T15:49:19.632Z,72.80
2018-07-05T15:52:00.362Z,69.10
2018-07-05T15:57:15.569Z,69.50
2018-07-05T15:59:55.657Z,70.50
2018-07-05T16:05:09.926Z,69.00
2018-07-05T16:07:50.577Z,69.20
2018-07-05T16:13:04.739Z,73.20
2018-07-05T16:18:19.001Z,69.90
2018-07-05T16:20:59.184Z,69.30
2018-07-05T16:32:10.417Z,77.80
2018-07-05T16:37:24.346Z,80.20
2018-07-05T16:40:04.644Z,74.60
2018-07-05T16:42:44.975Z,77.60
2018-07-05T16:55:40.389Z,80.20
2018-07-05T16:58:20.147Z,81.80
2018-07-05T17:06:07.789Z,84.10
2018-07-05T17:16:29.171Z,82.40
2018-07-05T17:21:42.976Z,75.40
2018-07-05T17:34:43.156Z,82.50
2018-07-05T17:42:31.145Z,73.80
2018-07-05T17:58:00.689Z,79.80
2018-07-05T18:00:40.623Z,88.10
2018-07-05T18:03:20.589Z,83.60
2018-07-05T18:06:00.572Z,90.70
2018-07-05T18:08:40.597Z,91.30
2018-07-05T18:13:54.183Z,91.70
2018-07-05T18:19:08.473Z,83.10
2018-07-05T18:34:38.531Z,94.90
2018-07-05T18:42:26.647Z,99.90
2018-07-05T18:50:14.427Z,97.00
2018-07-05T19:03:03.716Z,99.90
2018-07-05T19:08:11.245Z,99.90
2018-07-05T19:10:51.253Z,99.90
2018-07-05T19:13:31.156Z,99.90
2018-07-05T19:23:52.971Z,99.90
2018-07-05T19:26:32.716Z,99.90
2018-07-05T19:52:17.783Z,99.90
2018-07-05T19:57:32.172Z,99.90
2018-07-05T20:02:46.636Z,99.90
2018-07-05T20:05:26.543Z,99.90
2018-07-05T20:08:06.660Z,99.90
2018-07-05T20:10:50.416Z,99.90
2018-07-05T20:13:30.257Z,99.90
2018-07-05T20:16:10.167Z,99.90
2018-07-05T20:21:24.604Z,99.90
2018-07-05T20:31:46.496Z,99.90
2018-07-05T20:34:26.454Z,99.90
2018-07-05T20:42:14.120Z,99.90
2018-07-05T20:44:54.052Z,99.90
2018-07-05T20:50:08.257Z,99.90
2018-07-05T20:52:48.258Z,99.90
2018-07-05T20:55:28.198Z,99.90
2018-07-05T20:58:08.250Z,99.90
2018-07-05T21:03:22.142Z,99.90
2018-07-05T21:06:02.234Z,99.90
2018-07-05T21:16:24.185Z,99.90
2018-07-05T21:19:04.377Z,99.90
2018-07-05T21:24:18.459Z,99.90
2018-07-05T21:26:58.509Z,99.90
2018-07-05T21:29:38.272Z,99.90
2018-07-05T21:47:42.689Z,99.90
2018-07-05T21:52:56.469Z,99.90
2018-07-05T21:55:36.360Z,99.90
2018-07-05T21:58:16.409Z,99.90
2018-07-05T22:03:30.986Z,99.90
2018-07-05T22:06:10.971Z,99.90
2018-07-05T22:08:51.141Z,99.90
2018-07-05T22:14:05.250Z,99.90
2018-07-05T22:27:28.372Z,99.90
2018-07-05T22:30:13.678Z,99.90
2018-07-05T22:32:53.721Z,99.90
2018-07-05T22:35:33.704Z,99.90
2018-07-05T22:38:13.594Z,99.90
2018-07-05T22:43:27.747Z,99.90
2018-07-05T22:48:41.537Z,99.90
2018-07-05T22:56:29.865Z,99.90
2018-07-05T23:01:43.878Z,99.90
2018-07-05T23:17:12.650Z,99.90
2018-07-05T23:22:26.361Z,99.90
2018-07-05T23:27:40.392Z,99.90
2018-07-05T23:32:54.545Z,99.90
2018-07-05T23:35:34.530Z,99.90
2018-07-05T23:38:14.284Z,99.90
2018-07-05T23:46:05.668Z,99.90
2018-07-05T23:48:45.701Z,99.90
2018-07-05T23:56:33.608Z,99.90
